createdAt,value
2024-01-11T00:01:30.239Z,8.48
2024-01-11T00:03:57.038Z,7.82
2024-01-11T00:06:24.110Z,8.02
2024-01-11T00:08:51.040Z,8.83
2024-01-11T00:11:18.791Z,8.35
2024-01-11T00:13:45.848Z,8.57
2024-01-11T00:16:12.738Z,8.25
2024-01-11T00:18:39.863Z,8.75
2024-01-11T00:21:06.812Z,8.37
2024-01-11T00:23:33.688Z,8.43
2024-01-11T00:26:00.724Z,9.27
2024-01-11T00:28:27.692Z,8.45
2024-01-11T00:30:54.675Z,8.88
2024-01-11T00:33:21.630Z,8.80
2024-01-11T00:35:48.730Z,8.88
2024-01-11T00:38:15.700Z,8.70
2024-01-11T00:40:42.543Z,9.27
2024-01-11T00:43:09.370Z,8.68
2024-01-11T00:45:36.363Z,8.50
2024-01-11T00:48:03.892Z,9.00
2024-01-11T00:50:31.165Z,8.48
2024-01-11T00:52:58.304Z,8.52
2024-01-11T00:55:25.688Z,8.70
2024-01-11T00:57:52.591Z,8.20
2024-01-11T01:00:19.412Z,8.75
2024-01-11T01:02:46.317Z,8.90
2024-01-11T01:05:13.375Z,8.63
2024-01-11T01:07:40.701Z,8.85
2024-01-11T01:10:09.145Z,8.07
2024-01-11T01:12:35.995Z,8.45
2024-01-11T01:15:02.842Z,8.15
2024-01-11T01:17:29.826Z,8.63
2024-01-11T01:19:56.817Z,8.38
2024-01-11T01:22:23.646Z,8.83
2024-01-11T01:24:50.551Z,8.05
2024-01-11T01:27:17.987Z,8.63
2024-01-11T01:29:44.788Z,8.25
2024-01-11T01:32:11.836Z,8.82
2024-01-11T01:34:39.124Z,8.70
2024-01-11T01:37:05.984Z,8.82
2024-01-11T01:39:32.878Z,8.98
2024-01-11T01:41:59.755Z,8.45
2024-01-11T01:44:26.687Z,8.80
2024-01-11T01:46:53.742Z,8.53
2024-01-11T01:49:23.577Z,8.90
2024-01-11T01:51:51.769Z,9.18
2024-01-11T01:54:19.916Z,8.90
2024-01-11T01:56:46.936Z,9.05
2024-01-11T01:59:14.933Z,8.93
2024-01-11T02:01:41.886Z,9.15
2024-01-11T02:04:08.815Z,8.82
2024-01-11T02:06:36.069Z,9.40
2024-01-11T02:09:04.740Z,8.32
2024-01-11T02:11:31.768Z,8.90
2024-01-11T02:13:59.410Z,8.70
2024-01-11T02:16:26.234Z,9.05
2024-01-11T02:18:53.183Z,9.23
2024-01-11T02:21:29.575Z,8.63
2024-01-11T02:24:06.909Z,9.20
2024-01-11T02:26:34.912Z,9.23
2024-01-11T02:29:01.968Z,8.75
2024-01-11T02:31:29.456Z,9.05
2024-01-11T02:33:57.284Z,9.55
2024-01-11T02:36:26.315Z,9.80
2024-01-11T02:38:54.341Z,8.90
2024-01-11T02:41:22.567Z,9.30
2024-01-11T02:43:49.920Z,9.35
2024-01-11T02:46:18.254Z,9.40
2024-01-11T02:48:45.397Z,9.53
2024-01-11T02:51:13.437Z,10.07
2024-01-11T02:53:40.388Z,10.07
2024-01-11T02:56:07.307Z,9.68
2024-01-11T02:58:34.198Z,9.55
2024-01-11T03:01:03.105Z,9.87
2024-01-11T03:03:30.923Z,9.82
2024-01-11T03:05:57.912Z,10.25
2024-01-11T03:08:25.000Z,9.95
2024-01-11T03:10:51.837Z,9.75
2024-01-11T03:13:20.070Z,9.93
2024-01-11T03:15:46.982Z,10.25
2024-01-11T03:18:14.853Z,10.10
2024-01-11T03:20:44.967Z,10.57
2024-01-11T03:23:11.868Z,9.60
2024-01-11T03:25:38.837Z,10.90
2024-01-11T03:28:05.755Z,10.90
2024-01-11T03:30:33.507Z,10.80
2024-01-11T03:33:00.719Z,10.20
2024-01-11T03:35:27.808Z,10.40
2024-01-11T03:37:54.636Z,10.97
2024-01-11T03:40:21.548Z,10.88
2024-01-11T03:42:48.315Z,11.30
2024-01-11T03:45:19.102Z,11.77
2024-01-11T03:47:46.051Z,11.23
2024-01-11T03:50:12.989Z,11.37
2024-01-11T03:52:40.686Z,11.38
2024-01-11T03:55:08.300Z,11.48
2024-01-11T03:57:36.116Z,11.18
2024-01-11T04:00:03.101Z,10.98
2024-01-11T04:02:31.400Z,11.57
2024-01-11T04:04:58.383Z,11.20
2024-01-11T04:07:25.624Z,11.73
2024-01-11T04:09:52.925Z,11.63
2024-01-11T04:12:19.748Z,11.82
2024-01-11T04:14:46.949Z,10.87
2024-01-11T04:17:13.886Z,11.57
2024-01-11T04:19:41.052Z,12.80
2024-01-11T04:22:07.951Z,12.23
2024-01-11T04:24:34.851Z,12.43
2024-01-11T04:27:01.707Z,12.93
2024-01-11T04:29:28.572Z,12.43
2024-01-11T04:31:55.489Z,13.23
2024-01-11T04:34:22.335Z,13.68
2024-01-11T04:36:49.297Z,13.18
2024-01-11T04:39:16.371Z,13.37
2024-01-11T04:41:43.344Z,13.55
2024-01-11T04:44:11.169Z,14.05
2024-01-11T04:46:38.006Z,13.98
2024-01-11T04:49:05.015Z,14.15
2024-01-11T04:51:31.856Z,14.13
2024-01-11T04:53:58.753Z,15.90
2024-01-11T04:56:25.633Z,14.18
2024-01-11T04:58:52.512Z,15.20
2024-01-11T05:01:19.787Z,14.45
2024-01-11T05:03:48.410Z,14.50
2024-01-11T05:06:22.973Z,15.40
2024-01-11T05:08:53.582Z,15.68
2024-01-11T05:11:22.524Z,15.40
2024-01-11T05:13:50.635Z,16.38
2024-01-11T05:16:37.883Z,15.60
2024-01-11T05:19:04.809Z,15.27
2024-01-11T05:21:31.764Z,16.13
2024-01-11T05:23:58.618Z,14.63
2024-01-11T05:26:25.563Z,15.82
2024-01-11T05:28:52.490Z,16.70
2024-01-11T05:31:19.754Z,15.68
2024-01-11T05:33:48.153Z,15.88
2024-01-11T05:36:15.515Z,15.52
2024-01-11T05:38:42.602Z,16.10
2024-01-11T05:41:10.160Z,15.70
2024-01-11T05:43:40.289Z,15.95
2024-01-11T05:46:08.210Z,15.75
2024-01-11T05:48:35.163Z,15.63
2024-01-11T05:51:02.096Z,15.80
2024-01-11T05:53:29.105Z,15.53
2024-01-11T05:55:56.076Z,16.13
2024-01-11T05:58:23.008Z,16.23
2024-01-11T06:00:49.999Z,16.23
2024-01-11T06:03:16.960Z,15.45
2024-01-11T06:05:44.032Z,15.63
2024-01-11T06:08:11.025Z,15.52
2024-01-11T06:10:38.583Z,15.60
2024-01-11T06:13:05.516Z,15.85
2024-01-11T06:15:33.145Z,16.25
2024-01-11T06:18:00.284Z,16.33
2024-01-11T06:20:27.285Z,16.35
2024-01-11T06:22:54.228Z,16.15
2024-01-11T06:25:21.236Z,16.02
2024-01-11T06:27:48.518Z,15.93
2024-01-11T06:30:15.625Z,16.00
2024-01-11T06:32:42.847Z,15.82
2024-01-11T06:35:10.684Z,15.95
2024-01-11T06:37:37.676Z,16.40
2024-01-11T06:40:04.931Z,16.23
2024-01-11T06:42:32.206Z,15.70
2024-01-11T06:44:59.105Z,16.33
2024-01-11T06:47:26.537Z,15.73
2024-01-11T06:49:54.541Z,16.33
2024-01-11T06:52:21.391Z,16.98
2024-01-11T06:54:48.214Z,19.30
2024-01-11T06:57:15.105Z,17.30
2024-01-11T06:59:42.022Z,17.77
2024-01-11T07:02:09.078Z,16.08
2024-01-11T07:04:36.081Z,16.42
2024-01-11T07:07:05.858Z,17.17
2024-01-11T07:09:32.959Z,17.33
2024-01-11T07:11:59.816Z,17.77
2024-01-11T07:14:26.786Z,18.15
2024-01-11T07:16:53.672Z,17.67
2024-01-11T07:19:20.581Z,17.63
2024-01-11T07:21:47.667Z,17.13
2024-01-11T07:24:14.592Z,17.95
2024-01-11T07:26:41.647Z,17.90
2024-01-11T07:29:08.636Z,18.25
2024-01-11T07:31:35.534Z,16.77
2024-01-11T07:34:02.905Z,17.35
2024-01-11T07:36:30.016Z,17.38
2024-01-11T07:38:57.612Z,18.30
2024-01-11T07:41:31.874Z,17.80
2024-01-11T07:44:00.872Z,17.30
2024-01-11T07:46:33.629Z,20.10
2024-01-11T07:49:07.607Z,19.63
2024-01-11T07:51:38.422Z,19.85
2024-01-11T07:54:06.276Z,19.83
2024-01-11T07:56:33.471Z,17.83
2024-01-11T07:59:00.564Z,19.83
2024-01-11T08:01:27.652Z,20.00
2024-01-11T08:03:54.713Z,20.20
2024-01-11T08:06:21.712Z,19.45
2024-01-11T08:08:53.457Z,18.87
2024-01-11T08:11:21.162Z,20.60
2024-01-11T08:13:48.126Z,21.00
2024-01-11T08:16:23.250Z,20.73
2024-01-11T08:18:51.346Z,20.20
2024-01-11T08:21:18.270Z,19.07
2024-01-11T08:23:46.642Z,19.20
2024-01-11T08:26:20.029Z,19.27
2024-01-11T08:28:47.095Z,18.52
2024-01-11T08:31:14.185Z,18.33
2024-01-11T08:33:41.535Z,18.27
2024-01-11T08:36:08.700Z,17.92
2024-01-11T08:38:37.142Z,18.05
2024-01-11T08:41:04.641Z,19.23
2024-01-11T08:43:31.720Z,18.52
2024-01-11T08:45:58.683Z,19.70
2024-01-11T08:48:25.769Z,19.08
2024-01-11T08:50:52.768Z,20.33
2024-01-11T08:53:19.687Z,19.10
2024-01-11T08:55:47.492Z,19.73
2024-01-11T08:58:14.905Z,18.97
2024-01-11T09:00:42.030Z,18.88
2024-01-11T09:03:09.279Z,19.88
2024-01-11T09:05:36.360Z,18.33
2024-01-11T09:08:03.582Z,19.02
2024-01-11T09:10:30.441Z,17.50
2024-01-11T09:12:57.226Z,18.77
2024-01-11T09:15:24.078Z,17.90
2024-01-11T09:17:51.780Z,18.60
2024-01-11T09:20:19.916Z,16.83
2024-01-11T09:22:47.194Z,17.07
2024-01-11T09:25:14.090Z,17.38
2024-01-11T09:27:41.294Z,16.98
2024-01-11T09:30:08.678Z,16.95
2024-01-11T09:32:35.770Z,17.42
2024-01-11T09:35:06.053Z,16.60
2024-01-11T09:37:33.471Z,16.35
2024-01-11T09:40:01.915Z,16.77
2024-01-11T09:42:29.365Z,16.63
2024-01-11T09:44:57.815Z,17.40
2024-01-11T09:47:26.139Z,17.30
2024-01-11T09:49:55.422Z,17.13
2024-01-11T09:52:23.839Z,17.50
2024-01-11T09:54:50.849Z,17.33
2024-01-11T09:57:24.943Z,17.05
2024-01-11T09:59:55.546Z,16.80
2024-01-11T10:02:24.291Z,16.50
2024-01-11T10:04:53.273Z,17.08
2024-01-11T10:07:23.982Z,16.52
2024-01-11T10:09:51.592Z,17.55
2024-01-11T10:12:26.486Z,17.10
2024-01-11T10:14:53.927Z,15.85
2024-01-11T10:17:24.315Z,16.25
2024-01-11T10:19:55.973Z,14.60
2024-01-11T10:22:24.982Z,15.07
2024-01-11T10:25:12.942Z,15.00
2024-01-11T10:27:45.458Z,13.98
2024-01-11T10:30:21.149Z,14.25
2024-01-11T10:32:49.080Z,13.85
2024-01-11T10:35:19.098Z,14.68
2024-01-11T10:37:46.434Z,13.77
2024-01-11T10:40:14.301Z,13.35
2024-01-11T10:42:44.185Z,14.05
2024-01-11T10:45:16.684Z,13.55
2024-01-11T10:47:54.565Z,14.55
2024-01-11T10:50:24.129Z,13.97
2024-01-11T10:53:05.749Z,14.32
2024-01-11T10:55:34.899Z,13.63
2024-01-11T10:58:03.001Z,12.95
2024-01-11T11:00:31.099Z,13.75
2024-01-11T11:03:01.104Z,13.37
2024-01-11T11:05:31.491Z,12.48
2024-01-11T11:08:02.166Z,12.15
2024-01-11T11:10:31.441Z,12.18
2024-01-11T11:13:00.832Z,12.35
2024-01-11T11:15:31.043Z,11.73
2024-01-11T11:17:59.014Z,11.30
2024-01-11T11:20:29.115Z,11.55
2024-01-11T11:23:06.624Z,11.30
2024-01-11T11:25:34.063Z,11.52
2024-01-11T11:28:05.033Z,13.60
2024-01-11T11:30:32.620Z,11.43
2024-01-11T11:33:08.331Z,11.93
2024-01-11T11:35:35.357Z,10.60
2024-01-11T11:38:02.985Z,11.30
2024-01-11T11:40:45.020Z,12.50
2024-01-11T11:43:11.873Z,11.90
2024-01-11T11:45:42.155Z,11.90
2024-01-11T11:48:47.349Z,11.20
2024-01-11T11:51:20.534Z,11.35
2024-01-11T11:53:52.059Z,10.77
2024-01-11T11:56:23.281Z,10.90
2024-01-11T11:58:51.068Z,10.60
2024-01-11T12:01:18.981Z,10.63
2024-01-11T12:03:53.139Z,10.60
2024-01-11T12:06:22.030Z,10.43
2024-01-11T12:08:50.024Z,11.80
2024-01-11T12:11:23.475Z,11.63
2024-01-11T12:13:51.222Z,11.98
2024-01-11T12:16:18.162Z,11.23
2024-01-11T12:18:45.306Z,11.20
2024-01-11T12:21:12.404Z,11.30
2024-01-11T12:23:41.151Z,11.05
2024-01-11T12:26:15.963Z,10.27
2024-01-11T12:28:44.974Z,9.85
2024-01-11T12:31:13.905Z,10.67
2024-01-11T12:33:42.301Z,9.88
2024-01-11T12:36:10.186Z,10.00
2024-01-11T12:38:37.667Z,10.05
2024-01-11T12:41:06.249Z,10.20
2024-01-11T12:43:35.172Z,9.60
2024-01-11T12:46:02.363Z,9.40
2024-01-11T12:48:29.454Z,9.68
2024-01-11T12:51:09.873Z,9.98
2024-01-11T12:53:41.919Z,9.85
2024-01-11T12:56:11.887Z,10.00
2024-01-11T12:58:39.575Z,9.50
2024-01-11T13:01:08.963Z,9.35
2024-01-11T13:03:39.783Z,9.80
2024-01-11T13:06:07.223Z,9.30
2024-01-11T13:08:37.630Z,8.70
2024-01-11T13:11:10.754Z,8.43
2024-01-11T13:13:38.077Z,8.52
2024-01-11T13:16:07.168Z,8.23
2024-01-11T13:18:34.339Z,8.70
2024-01-11T13:21:01.390Z,9.00
2024-01-11T13:23:28.437Z,8.45
2024-01-11T13:25:55.590Z,8.60
2024-01-11T13:28:23.570Z,8.82
2024-01-11T13:30:50.607Z,8.85
2024-01-11T13:33:19.316Z,9.10
2024-01-11T13:35:47.275Z,9.15
2024-01-11T13:38:14.419Z,8.55
2024-01-11T13:40:41.921Z,7.97
2024-01-11T13:43:09.124Z,8.18
2024-01-11T13:45:39.494Z,8.90
2024-01-11T13:48:07.347Z,8.38
2024-01-11T13:50:34.694Z,9.75
2024-01-11T13:53:03.148Z,9.27
2024-01-11T13:55:39.560Z,9.45
2024-01-11T13:58:07.513Z,10.43
2024-01-11T14:00:34.762Z,9.30
2024-01-11T14:03:02.391Z,9.50
2024-01-11T14:05:29.680Z,9.30
2024-01-11T14:07:59.548Z,10.38
2024-01-11T14:10:28.173Z,9.77
2024-01-11T14:12:55.448Z,9.48
2024-01-11T14:15:22.768Z,9.68
2024-01-11T14:17:50.222Z,9.15
2024-01-11T14:20:18.170Z,9.50
2024-01-11T14:22:55.614Z,9.57
2024-01-11T14:25:24.065Z,10.18
2024-01-11T14:27:51.412Z,10.68
2024-01-11T14:30:18.408Z,9.68
2024-01-11T14:32:46.750Z,9.65
2024-01-11T14:35:15.138Z,10.53
2024-01-11T14:37:42.306Z,12.25
2024-01-11T14:40:13.163Z,16.92
2024-01-11T14:42:40.644Z,13.15
2024-01-11T14:45:08.217Z,11.48
2024-01-11T14:47:36.211Z,10.03
2024-01-11T14:50:05.296Z,8.27
2024-01-11T14:52:32.716Z,10.02
2024-01-11T14:55:00.373Z,9.57
2024-01-11T14:57:27.254Z,9.68
2024-01-11T14:59:54.360Z,10.03
2024-01-11T15:02:22.009Z,10.00
2024-01-11T15:04:50.299Z,9.48
2024-01-11T15:07:17.221Z,10.10
2024-01-11T15:09:44.334Z,9.88
2024-01-11T15:12:11.292Z,10.43
2024-01-11T15:14:38.319Z,10.23
2024-01-11T15:17:05.518Z,9.70
2024-01-11T15:19:32.997Z,10.02
2024-01-11T15:22:00.512Z,10.60
2024-01-11T15:24:29.180Z,10.23
2024-01-11T15:26:56.537Z,11.25
2024-01-11T15:29:23.664Z,10.88
2024-01-11T15:31:51.439Z,11.18
2024-01-11T15:34:19.465Z,10.93
2024-01-11T15:36:46.760Z,10.97
2024-01-11T15:39:21.796Z,10.93
2024-01-11T15:41:56.567Z,10.82
2024-01-11T15:44:25.287Z,11.40
2024-01-11T15:46:52.264Z,10.48
2024-01-11T15:49:19.355Z,10.43
2024-01-11T15:51:46.335Z,10.85
2024-01-11T15:54:13.226Z,10.82
2024-01-11T15:56:40.204Z,10.45
2024-01-11T15:59:08.506Z,9.75
2024-01-11T16:01:47.007Z,11.33
2024-01-11T16:04:23.866Z,10.95
2024-01-11T16:06:50.988Z,10.10
2024-01-11T16:09:17.928Z,12.05
2024-01-11T16:11:46.160Z,12.23
2024-01-11T16:14:13.165Z,11.07
2024-01-11T16:16:40.862Z,11.68
2024-01-11T16:19:07.894Z,13.40
2024-01-11T16:21:34.827Z,12.02
2024-01-11T16:24:03.363Z,12.13
2024-01-11T16:26:31.138Z,11.87
2024-01-11T16:28:58.534Z,13.68
2024-01-11T16:31:25.863Z,14.43
2024-01-11T16:33:53.689Z,13.00
2024-01-11T16:36:20.962Z,13.63
2024-01-11T16:38:47.911Z,12.07
2024-01-11T16:41:15.213Z,16.20
2024-01-11T16:43:44.341Z,13.27
2024-01-11T16:46:21.871Z,12.55
2024-01-11T16:48:49.855Z,12.82
2024-01-11T16:51:16.928Z,14.17
2024-01-11T16:53:47.408Z,13.40
2024-01-11T16:56:14.610Z,13.25
2024-01-11T16:58:42.716Z,12.80
2024-01-11T17:01:10.725Z,14.57
2024-01-11T17:03:37.616Z,14.50
2024-01-11T17:06:04.795Z,13.73
2024-01-11T17:08:32.231Z,13.68
2024-01-11T17:10:59.599Z,14.20
2024-01-11T17:13:27.303Z,13.73
2024-01-11T17:15:54.223Z,13.13
2024-01-11T17:18:21.279Z,12.88
2024-01-11T17:20:48.441Z,14.52
2024-01-11T17:23:16.279Z,13.68
2024-01-11T17:25:44.185Z,13.20
2024-01-11T17:28:11.111Z,13.60
2024-01-11T17:30:38.636Z,12.18
2024-01-11T17:33:05.811Z,14.63
2024-01-11T17:35:32.762Z,14.57
2024-01-11T17:37:59.634Z,15.23
2024-01-11T17:40:30.496Z,15.00
2024-01-11T17:42:58.132Z,14.10
2024-01-11T17:45:25.999Z,14.23
2024-01-11T17:47:56.281Z,13.50
2024-01-11T17:50:23.852Z,14.27
2024-01-11T17:52:52.044Z,14.30
2024-01-11T17:55:19.472Z,14.23
2024-01-11T17:57:46.619Z,14.57
2024-01-11T18:00:14.425Z,13.73
2024-01-11T18:02:41.499Z,14.23
2024-01-11T18:05:10.153Z,14.57
2024-01-11T18:07:37.519Z,13.88
2024-01-11T18:10:04.723Z,13.23
2024-01-11T18:12:31.582Z,13.98
2024-01-11T18:14:58.734Z,15.07
2024-01-11T18:17:25.718Z,14.33
2024-01-11T18:19:52.891Z,14.55
2024-01-11T18:22:19.956Z,15.60
2024-01-11T18:24:46.849Z,14.77
2024-01-11T18:27:13.787Z,14.70
2024-01-11T18:29:40.801Z,15.67
2024-01-11T18:32:08.106Z,14.88
2024-01-11T18:34:35.185Z,14.85
2024-01-11T18:37:02.000Z,15.90
2024-01-11T18:39:28.848Z,16.45
2024-01-11T18:41:58.730Z,17.20
2024-01-11T18:44:26.816Z,17.33
2024-01-11T18:46:53.930Z,16.23
2024-01-11T18:49:21.110Z,14.95
2024-01-11T18:51:48.075Z,15.20
2024-01-11T18:54:15.171Z,15.23
2024-01-11T18:56:42.703Z,15.02
2024-01-11T18:59:09.675Z,15.18
2024-01-11T19:01:36.674Z,14.18
2024-01-11T19:04:03.912Z,14.50
2024-01-11T19:06:31.543Z,14.97
2024-01-11T19:08:59.127Z,15.13
2024-01-11T19:11:26.909Z,14.20
2024-01-11T19:13:53.788Z,14.80
2024-01-11T19:16:20.605Z,15.15
2024-01-11T19:18:50.030Z,13.80
2024-01-11T19:21:18.819Z,14.45
2024-01-11T19:23:45.858Z,14.18
2024-01-11T19:26:13.473Z,14.52
2024-01-11T19:28:40.385Z,14.45
2024-01-11T19:31:07.851Z,14.53
2024-01-11T19:33:35.926Z,15.05
2024-01-11T19:36:03.591Z,14.80
2024-01-11T19:38:35.349Z,15.45
2024-01-11T19:41:02.530Z,14.77
2024-01-11T19:43:29.953Z,14.23
2024-01-11T19:45:57.604Z,14.77
2024-01-11T19:48:25.706Z,13.55
2024-01-11T19:50:54.471Z,14.50
2024-01-11T19:53:21.742Z,13.45
2024-01-11T19:55:48.710Z,14.40
2024-01-11T19:58:15.935Z,14.15
2024-01-11T20:00:42.972Z,14.65
2024-01-11T20:03:10.290Z,14.02
2024-01-11T20:05:37.724Z,13.85
2024-01-11T20:08:05.586Z,14.30
2024-01-11T20:10:32.793Z,14.38
2024-01-11T20:12:59.806Z,14.82
2024-01-11T20:15:26.705Z,15.40
2024-01-11T20:17:53.738Z,15.30
2024-01-11T20:20:20.682Z,14.73
2024-01-11T20:22:47.479Z,14.93
2024-01-11T20:25:14.344Z,14.77
2024-01-11T20:27:41.194Z,14.52
2024-01-11T20:30:11.847Z,15.45
2024-01-11T20:32:39.524Z,15.90
2024-01-11T20:35:07.036Z,14.45
2024-01-11T20:37:35.172Z,14.82
2024-01-11T20:40:02.049Z,14.77
2024-01-11T20:42:28.964Z,14.85
2024-01-11T20:44:56.227Z,14.60
2024-01-11T20:47:23.919Z,14.55
2024-01-11T20:49:52.019Z,14.48
2024-01-11T20:52:22.307Z,15.18
2024-01-11T20:54:50.944Z,13.90
2024-01-11T20:57:21.199Z,13.93
2024-01-11T20:59:48.268Z,15.13
2024-01-11T21:02:15.221Z,14.45
2024-01-11T21:04:42.183Z,13.93
2024-01-11T21:07:09.099Z,15.43
2024-01-11T21:09:36.785Z,15.90
2024-01-11T21:12:04.258Z,15.05
2024-01-11T21:14:31.400Z,15.18
2024-01-11T21:16:58.421Z,15.07
2024-01-11T21:19:25.707Z,14.70
2024-01-11T21:21:53.978Z,15.93
2024-01-11T21:24:22.723Z,15.10
2024-01-11T21:26:49.961Z,14.90
2024-01-11T21:29:16.911Z,15.38
2024-01-11T21:31:44.620Z,13.35
2024-01-11T21:34:11.681Z,13.93
2024-01-11T21:36:40.202Z,12.77
2024-01-11T21:39:07.113Z,13.50
2024-01-11T21:41:34.088Z,14.18
2024-01-11T21:44:01.249Z,12.70
2024-01-11T21:46:28.665Z,12.37
2024-01-11T21:48:55.848Z,12.70
2024-01-11T21:51:22.910Z,12.75
2024-01-11T21:53:57.699Z,12.75
2024-01-11T21:56:28.122Z,12.70
2024-01-11T21:58:54.948Z,12.10
2024-01-11T22:01:23.171Z,12.35
2024-01-11T22:03:50.376Z,11.75
2024-01-11T22:06:17.864Z,11.95
2024-01-11T22:08:44.750Z,12.65
2024-01-11T22:11:11.711Z,12.07
2024-01-11T22:13:38.850Z,11.32
2024-01-11T22:16:06.910Z,9.32
2024-01-11T22:18:34.393Z,11.07
2024-01-11T22:21:02.950Z,11.75
2024-01-11T22:23:30.366Z,11.87
2024-01-11T22:25:57.242Z,11.23
2024-01-11T22:28:24.046Z,11.48
2024-01-11T22:30:51.672Z,11.50
2024-01-11T22:33:18.870Z,11.43
2024-01-11T22:35:45.961Z,11.37
2024-01-11T22:38:12.783Z,10.30
2024-01-11T22:40:39.866Z,10.90
2024-01-11T22:43:07.124Z,9.90
2024-01-11T22:45:35.218Z,8.40
2024-01-11T22:48:02.194Z,8.13
2024-01-11T22:50:29.741Z,8.30
2024-01-11T22:52:58.572Z,8.32
2024-01-11T22:55:25.530Z,7.47
2024-01-11T22:57:52.670Z,8.35
2024-01-11T23:00:23.322Z,7.27
2024-01-11T23:02:51.222Z,7.28
2024-01-11T23:05:19.433Z,7.18
2024-01-11T23:07:46.827Z,7.43
2024-01-11T23:10:14.221Z,7.07
2024-01-11T23:12:42.184Z,7.27
2024-01-11T23:15:10.241Z,6.93
2024-01-11T23:17:37.399Z,7.10
2024-01-11T23:20:08.008Z,6.25
2024-01-11T23:22:36.087Z,6.25
2024-01-11T23:25:03.210Z,5.97
2024-01-11T23:27:30.199Z,6.70
2024-01-11T23:29:57.301Z,5.90
2024-01-11T23:32:24.439Z,6.20
2024-01-11T23:34:51.364Z,6.18
2024-01-11T23:37:18.290Z,6.00
2024-01-11T23:39:45.184Z,5.68
2024-01-11T23:42:13.286Z,5.43
2024-01-11T23:44:40.622Z,5.45
2024-01-11T23:47:08.564Z,5.45
2024-01-11T23:49:35.713Z,5.10
2024-01-11T23:52:02.591Z,4.82
2024-01-11T23:54:29.539Z,5.00
2024-01-11T23:56:56.491Z,4.65
2024-01-11T23:59:24.242Z,4.85
